Map

Track Data

SID SEASON NUMBER BASIN SUBBASIN NAME ISO_TIME NATURE LAT LON WMO_WIND WMO_PRES WMO_AGENCY TRACK_TYPE DIST2LAND LANDFALL IFLAG USA_AGENCY USA_ATCF_ID USA_LAT USA_LON USA_RECORD USA_STATUS USA_WIND USA_PRES USA_SSHS USA_R34_NE USA_R34_SE USA_R34_SW USA_R34_NW USA_R50_NE USA_R50_SE USA_R50_SW USA_R50_NW USA_R64_NE USA_R64_SE USA_R64_SW USA_R64_NW USA_POCI USA_ROCI USA_RMW USA_EYE TOKYO_LAT TOKYO_LON TOKYO_GRADE TOKYO_WIND TOKYO_PRES TOKYO_R50_DIR TOKYO_R50_LONG TOKYO_R50_SHORT TOKYO_R30_DIR TOKYO_R30_LONG TOKYO_R30_SHORT TOKYO_LAND CMA_LAT CMA_LON CMA_CAT CMA_WIND CMA_PRES HKO_LAT HKO_LON HKO_CAT HKO_WIND HKO_PRES NEWDELHI_LAT NEWDELHI_LON NEWDELHI_GRADE NEWDELHI_WIND NEWDELHI_PRES NEWDELHI_CI NEWDELHI_DP NEWDELHI_POCI REUNION_LAT REUNION_LON REUNION_TYPE REUNION_WIND REUNION_PRES REUNION_TNUM REUNION_CI REUNION_RMW REUNION_R34_NE REUNION_R34_SE REUNION_R34_SW REUNION_R34_NW REUNION_R50_NE REUNION_R50_SE REUNION_R50_SW REUNION_R50_NW REUNION_R64_NE REUNION_R64_SE REUNION_R64_SW REUNION_R64_NW BOM_LAT BOM_LON BOM_TYPE BOM_WIND BOM_PRES BOM_TNUM BOM_CI BOM_RMW BOM_R34_NE BOM_R34_SE BOM_R34_SW BOM_R34_NW BOM_R50_NE BOM_R50_SE BOM_R50_SW BOM_R50_NW BOM_R64_NE BOM_R64_SE BOM_R64_SW BOM_R64_NW BOM_ROCI BOM_POCI BOM_EYE BOM_POS_METHOD BOM_PRES_METHOD NADI_LAT NADI_LON NADI_CAT NADI_WIND NADI_PRES WELLINGTON_LAT WELLINGTON_LON WELLINGTON_WIND WELLINGTON_PRES DS824_LAT DS824_LON DS824_STAGE DS824_WIND DS824_PRES TD9636_LAT TD9636_LON TD9636_STAGE TD9636_WIND TD9636_PRES TD9635_LAT TD9635_LON TD9635_WIND TD9635_PRES TD9635_ROCI NEUMANN_LAT NEUMANN_LON NEUMANN_CLASS NEUMANN_WIND NEUMANN_PRES MLC_LAT MLC_LON MLC_CLASS MLC_WIND MLC_PRES USA_GUST BOM_GUST BOM_GUST_PER REUNION_GUST REUNION_GUST_PER USA_SEAHGT USA_SEARAD_NE USA_SEARAD_SE USA_SEARAD_SW USA_SEARAD_NW STORM_SPEED STORM_DIR
1941032S09172 1941 8 SP MM NOT_NAMED 1941-02-01 00:00:00 NR -8.70000 172.000 main 884 846 __________O___ -1 -8.70000 172.000 4 8 236
1941032S09172 1941 8 SP MM NOT_NAMED 1941-02-01 03:00:00 NR -8.93003 171.658 main 846 803 __________P___ -1 -8.93003 171.658 4 8 236
1941032S09172 1941 8 SP MM NOT_NAMED 1941-02-01 06:00:00 NR -9.15793 171.323 main 794 756 __________P___ -1 -9.15793 171.323 4 8 235
1941032S09172 1941 8 SP MM NOT_NAMED 1941-02-01 09:00:00 NR -9.38185 171.001 main 756 720 __________P___ -1 -9.38185 171.001 4 8 234
1941032S09172 1941 8 SP MM NOT_NAMED 1941-02-01 12:00:00 NR -9.60000 170.700 main 720 683 __________O___ -1 -9.60000 170.700 4 7 233
1941032S09172 1941 8 SP MM NOT_NAMED 1941-02-01 15:00:00 NR -9.81250 170.421 main 683 653 __________P___ -1 -9.81250 170.421 4 7 232
1941032S09172 1941 8 SP MM NOT_NAMED 1941-02-01 18:00:00 NR -10.0270 170.144 main 647 617 __________P___ -1 -10.0270 170.144 4 7 232
1941032S09172 1941 8 SP MM NOT_NAMED 1941-02-01 21:00:00 NR -10.2530 169.846 main 602 565 __________P___ -1 -10.2530 169.846 4 8 233
1941032S09172 1941 8 SP MM NOT_NAMED 1941-02-02 00:00:00 NR -10.5000 169.500 main 565 514 __________O___ -1 -10.5000 169.500 4 10 236
1941032S09172 1941 8 SP MM NOT_NAMED 1941-02-02 03:00:00 NR -10.7829 169.047 main 508 457 __________P___ -1 -10.7829 169.047 4 11 238
1941032S09172 1941 8 SP MM NOT_NAMED 1941-02-02 06:00:00 NR -11.0856 168.550 main 457 403 __________P___ -1 -11.0856 168.550 4 12 238
1941032S09172 1941 8 SP MM NOT_NAMED 1941-02-02 09:00:00 NR -11.3954 168.053 main 403 352 __________P___ -1 -11.3954 168.053 4 11 237
1941032S09172 1941 8 SP MM NOT_NAMED 1941-02-02 12:00:00 NR -11.7000 167.600 main 352 311 __________O___ -1 -11.7000 167.600 4 10 234
1941032S09172 1941 8 SP MM NOT_NAMED 1941-02-02 15:00:00 NR -11.9777 167.245 main 309 283 __________P___ -1 -11.9777 167.245 4 9 230
1941032S09172 1941 8 SP MM NOT_NAMED 1941-02-02 18:00:00 NR -12.2495 166.939 main 281 246 __________P___ -1 -12.2495 166.939 4 8 226
1941032S09172 1941 8 SP MM NOT_NAMED 1941-02-02 21:00:00 NR -12.5216 166.664 main 246 213 __________P___ -1 -12.5216 166.664 4 8 224
1941032S09172 1941 8 SP MM NOT_NAMED 1941-02-03 00:00:00 NR -12.8000 166.400 main 213 187 __________O___ -1 -12.8000 166.400 4 8 223
1941032S09172 1941 8 SP MM NOT_NAMED 1941-02-03 03:00:00 NR -13.0927 166.114 main 187 163 __________P___ -1 -13.0927 166.114 4 8 223
1941032S09172 1941 8 SP MM NOT_NAMED 1941-02-03 06:00:00 NR -13.3924 165.835 main 169 155 __________P___ -1 -13.3924 165.835 4 8 222
1941032S09172 1941 8 SP MM NOT_NAMED 1941-02-03 09:00:00 NR -13.6959 165.564 main 155 155 __________P___ -1 -13.6959 165.564 4 8 221
1941032S09172 1941 8 SP MM NOT_NAMED 1941-02-03 12:00:00 NR -14.0000 165.300 main 157 155 __________O___ -1 -14.0000 165.300 4 8 220
1941032S09172 1941 8 SP MM NOT_NAMED 1941-02-03 15:00:00 NR -14.2753 165.066 main 160 160 __________P___ -1 -14.2753 165.066 4 7 219
1941032S09172 1941 8 SP MM NOT_NAMED 1941-02-03 18:00:00 NR -14.5545 164.836 main 184 183 __________P___ -1 -14.5545 164.836 4 7 219
1941032S09172 1941 8 SP MM NOT_NAMED 1941-02-03 21:00:00 NR -14.8565 164.588 main 204 204 __________P___ -1 -14.8565 164.588 4 8 219
1941032S09172 1941 8 SP MM NOT_NAMED 1941-02-04 00:00:00 NR -15.2000 164.300 main 240 240 __________O___ -1 -15.2000 164.300 4 10 220
1941032S09172 1941 8 SP MM NOT_NAMED 1941-02-04 03:00:00 NR -15.6112 163.931 main 290 290 __________P___ -1 -15.6112 163.931 4 11 221
1941032S09172 1941 8 SP MM NOT_NAMED 1941-02-04 06:00:00 NR -16.0629 163.523 main 341 341 __________P___ -1 -16.0629 163.523 4 12 221
1941032S09172 1941 8 SP MM NOT_NAMED 1941-02-04 09:00:00 NR -16.5331 163.103 main 394 387 __________P___ -1 -16.5331 163.103 4 12 220
1941032S09172 1941 8 SP MM NOT_NAMED 1941-02-04 12:00:00 NR -17.0000 162.700 main 387 360 __________O___ -1 -17.0000 162.700 4 11 219
1941032S09172 1941 8 SP MM NOT_NAMED 1941-02-04 15:00:00 NR -17.3910 162.376 main 360 341 __________P___ -1 -17.3910 162.376 4 10 218
1941032S09172 1941 8 SP MM NOT_NAMED 1941-02-04 18:00:00 NR -17.7816 162.070 main 341 329 __________P___ -1 -17.7816 162.070 4 10 216
1941032S09172 1941 8 SP MM NOT_NAMED 1941-02-04 21:00:00 NR -18.2065 161.754 main 329 322 __________P___ -1 -18.2065 161.754 4 11 215
1941032S09172 1941 8 SP MM NOT_NAMED 1941-02-05 00:00:00 NR -18.7000 161.400 main 326 319 __________O___ -1 -18.7000 161.400 4 14 214
1941032S09172 1941 8 SP MM NOT_NAMED 1941-02-05 03:00:00 NR -19.3237 160.961 main 333 333 __________P___ -1 -19.3237 160.961 4 16 213
1941032S09172 1941 8 SP MM NOT_NAMED 1941-02-05 06:00:00 NR -20.0130 160.481 main 366 365 __________P___ -1 -20.0130 160.481 4 17 213
1941032S09172 1941 8 SP EA NOT_NAMED 1941-02-05 09:00:00 NR -20.7206 159.986 main 418 418 __________P___ -1 -20.7206 159.986 4 17 213
1941032S09172 1941 8 SP EA NOT_NAMED 1941-02-05 12:00:00 NR -21.4000 159.500 main 483 483 __________O___ -1 -21.4000 159.500 4 15 216
1941032S09172 1941 8 SP EA NOT_NAMED 1941-02-05 15:00:00 NR -21.9168 159.042 main 548 548 __________P___ -1 -21.9168 159.042 4 13 220
1941032S09172 1941 8 SP EA NOT_NAMED 1941-02-05 18:00:00 NR -22.4100 158.601 main 602 541 __________P___ -1 -22.4100 158.601 4 13 218
1941032S09172 1941 8 SP EA NOT_NAMED 1941-02-05 21:00:00 NR -22.9481 158.185 main 541 472 __________P___ -1 -22.9481 158.185 4 14 212
1941032S09172 1941 8 SP EA NOT_NAMED 1941-02-06 00:00:00 NR -23.6000 157.800 main 472 409 __________O___ -1 -23.6000 157.800 4 17 206
1941032S09172 1941 8 SP EA NOT_NAMED 1941-02-06 03:00:00 NR -24.4612 157.369 main 407 363 __________P___ -1 -24.4612 157.369 4 20 202
1941032S09172 1941 8 SP EA NOT_NAMED 1941-02-06 06:00:00 NR -25.4380 156.977 main 364 352 __________P___ -1 -25.4380 156.977 4 21 197
1941032S09172 1941 8 SP EA NOT_NAMED 1941-02-06 09:00:00 NR -26.4707 156.670 main 353 298 __________P___ -1 -26.4707 156.670 4 21 192
1941032S09172 1941 8 SP EA NOT_NAMED 1941-02-06 12:00:00 NR -27.5000 156.500 main 295 283 __________O___ -1 -27.5000 156.500 4 20 184
1941032S09172 1941 8 SP EA NOT_NAMED 1941-02-06 15:00:00 NR -28.4794 156.502 main 283 281 __________P___ -1 -28.4794 156.502 4 19 176
1941032S09172 1941 8 SP EA NOT_NAMED 1941-02-06 18:00:00 NR -29.4124 156.650 main 305 305 __________P___ -1 -29.4124 156.650 4 19 169
1941032S09172 1941 8 SP EA NOT_NAMED 1941-02-06 21:00:00 NR -30.3142 156.898 main 348 348 __________P___ -1 -30.3142 156.898 4 19 165
1941032S09172 1941 8 SP EA NOT_NAMED 1941-02-07 00:00:00 NR -31.2000 157.200 main 389 __________O___ -1 -31.2000 157.200 4 19 164

Digital Typhoon Data and Search

About IBTrACS Database

This database is a web-friendly format of International Best Track Archive for Climate Stewardship (IBTrACS), a global best track data archive curated by NOAA dating back to 1842.

Updated: 2021-12-01